Time,TemperatureF,DewpointF,PressureIn,WindDirection,WindDirectionDegrees,WindSpeedMPH,WindSpeedGustMPH,Humidity,HourlyPrecipIn,Conditions,Clouds,dailyrainin,SolarRadiationWatts/m^2,SoftwareType,DateUTC
2013-06-13 00:03:00,63.5,62.0,29.89,South,188,6.7,9.2,95,0.02,-RA,,0.00,0.0,WeatherDisplay:10.37,2013-06-12 22:03:00,
2013-06-13 00:08:00,63.5,62.0,29.88,SSE,162,5.1,9.0,95,0.02,-RA,,0.00,0.0,WeatherDisplay:10.37,2013-06-12 22:08:00,
2013-06-13 00:13:00,63.6,62.1,29.88,SSW,206,7.5,12.0,95,0.02,-RA,,0.00,0.0,WeatherDisplay:10.37,2013-06-12 22:13:00,
2013-06-13 00:18:00,63.7,61.9,29.88,SW,216,6.0,12.7,94,0.02,-RA,,0.00,0.0,WeatherDisplay:10.37,2013-06-12 22:18:00,
2013-06-13 00:23:00,63.8,62.0,29.88,SSW,213,6.2,10.0,94,0.02,-RA,,0.00,0.0,WeatherDisplay:10.37,2013-06-12 22:23:00,
2013-06-13 00:28:00,63.8,62.0,29.88,South,188,7.4,11.5,94,0.02,-RA,,0.00,0.0,WeatherDisplay:10.37,2013-06-12 22:28:00,
2013-06-13 00:33:00,63.9,62.1,29.88,SSW,203,6.5,10.4,94,0.01,OVC,,0.00,0.0,WeatherDisplay:10.37,2013-06-12 22:33:00,
2013-06-13 00:38:00,63.9,62.1,29.88,SSW,202,6.6,10.4,94,0.01,OVC,,0.00,0.0,WeatherDisplay:10.37,2013-06-12 22:38:00,
2013-06-13 00:43:00,64.0,62.2,29.88,SSW,205,5.4,6.9,94,0.01,OVC,,0.00,0.0,WeatherDisplay:10.37,2013-06-12 22:43:00,
2013-06-13 00:48:00,64.0,62.2,29.88,SSW,205,6.7,9.0,94,0.00,OVC,,0.00,0.0,WeatherDisplay:10.37,2013-06-12 22:48:00,
2013-06-13 00:53:00,64.0,62.2,29.88,SSW,209,7.1,12.7,94,0.00,OVC,,0.00,0.0,WeatherDisplay:10.37,2013-06-12 22:53:00,
2013-06-13 00:58:00,64.0,62.2,29.88,SSW,209,10.3,12.7,94,0.00,OVC,,0.00,0.0,WeatherDisplay:10.37,2013-06-12 22:58:00,
2013-06-13 01:03:00,64.0,62.2,29.88,SW,230,10.9,12.7,94,0.00,OVC,,0.00,0.0,WeatherDisplay:10.37,2013-06-12 23:03:00,
2013-06-13 01:08:00,64.0,62.2,29.88,SW,217,8.3,13.0,94,0.00,OVC,,0.00,0.0,WeatherDisplay:10.37,2013-06-12 23:08:00,
2013-06-13 01:13:00,64.1,62.3,29.87,SSW,197,6.5,11.5,94,0.00,OVC,,0.00,0.0,WeatherDisplay:10.37,2013-06-12 23:13:00,
2013-06-13 01:18:00,64.1,62.3,29.87,SSW,209,6.1,11.5,94,0.00,OVC,,0.00,0.0,WeatherDisplay:10.37,2013-06-12 23:18:00,
2013-06-13 01:23:00,64.2,62.4,29.87,South,190,9.5,11.5,94,0.00,OVC,,0.00,0.0,WeatherDisplay:10.37,2013-06-12 23:23:00,
2013-06-13 01:28:00,64.2,62.4,29.87,SSW,213,8.7,16.1,94,0.00,OVC,,0.00,0.0,WeatherDisplay:10.37,2013-06-12 23:28:00,
2013-06-13 01:33:00,64.2,62.1,29.87,SSW,211,6.7,11.5,93,0.00,BKN,,0.00,0.0,WeatherDisplay:10.37,2013-06-12 23:33:00,
2013-06-13 01:38:00,64.3,62.2,29.87,SSW,207,6.8,10.4,93,0.00,BKN,,0.00,0.0,WeatherDisplay:10.37,2013-06-12 23:38:00,
2013-06-13 01:43:00,64.3,62.2,29.86,SSW,208,8.2,11.5,93,0.00,BKN,,0.00,0.0,WeatherDisplay:10.37,2013-06-12 23:43:00,
2013-06-13 01:48:00,64.3,62.2,29.86,SSW,211,9.2,12.7,93,0.00,BKN,,0.00,0.0,WeatherDisplay:10.37,2013-06-12 23:48:00,
2013-06-13 01:53:00,64.3,62.2,29.86,SSW,206,10.5,12.7,93,0.00,BKN,,0.00,0.0,WeatherDisplay:10.37,2013-06-12 23:53:00,
2013-06-13 01:58:00,64.3,62.2,29.86,South,186,5.9,13.8,93,0.00,BKN,,0.00,0.0,WeatherDisplay:10.37,2013-06-12 23:58:00,
2013-06-13 02:03:00,64.4,62.3,29.86,SSW,202,9.2,12.7,93,0.00,BKN,,0.00,0.0,WeatherDisplay:10.37,2013-06-13 00:03:00,
2013-06-13 02:08:00,64.4,62.3,29.86,SSW,209,5.4,15.0,93,0.00,BKN,,0.00,0.0,WeatherDisplay:10.37,2013-06-13 00:08:00,
2013-06-13 02:13:00,64.4,62.3,29.86,SW,214,7.4,16.1,93,0.00,BKN,,0.00,0.0,WeatherDisplay:10.37,2013-06-13 00:13:00,
2013-06-13 02:18:00,64.5,62.4,29.86,SSW,207,6.4,12.7,93,0.00,BKN,,0.00,0.0,WeatherDisplay:10.37,2013-06-13 00:18:00,
2013-06-13 02:23:00,64.5,62.1,29.85,SSW,198,8.9,11.5,92,0.00,BKN,,0.00,0.0,WeatherDisplay:10.37,2013-06-13 00:23:00,
2013-06-13 02:28:00,64.5,62.1,29.85,SSW,199,8.9,18.0,92,0.00,BKN,,0.00,0.0,WeatherDisplay:10.37,2013-06-13 00:28:00,
2013-06-13 02:33:00,64.5,62.1,29.85,SW,216,9.3,15.0,92,0.00,-DZ,,0.00,0.0,WeatherDisplay:10.37,2013-06-13 00:33:00,
2013-06-13 02:38:00,64.4,62.0,29.85,SSW,212,8.3,16.1,92,0.00,-DZ,,0.00,0.0,WeatherDisplay:10.37,2013-06-13 00:38:00,
2013-06-13 02:43:00,64.4,62.0,29.85,SW,217,9.4,15.0,92,0.00,-DZ,,0.00,0.0,WeatherDisplay:10.37,2013-06-13 00:43:00,
2013-06-13 02:48:00,64.4,62.0,29.85,SW,218,5.3,11.5,92,0.00,-DZ,,0.00,0.0,WeatherDisplay:10.37,2013-06-13 00:48:00,
2013-06-13 02:53:00,64.3,61.9,29.85,SW,225,7.4,12.7,92,0.00,-DZ,,0.00,0.0,WeatherDisplay:10.37,2013-06-13 00:53:00,
2013-06-13 02:58:00,64.3,61.9,29.85,SSW,210,8.1,12.7,92,0.00,-DZ,,0.00,0.0,WeatherDisplay:10.37,2013-06-13 00:58:00,
2013-06-13 03:03:00,64.3,61.9,29.85,SW,215,6.1,12.7,92,0.01,RA,,0.01,0.0,WeatherDisplay:10.37,2013-06-13 01:03:00,
2013-06-13 03:08:00,64.2,61.8,29.85,SW,220,7.7,11.5,92,0.01,RA,,0.01,0.0,WeatherDisplay:10.37,2013-06-13 01:08:00,
2013-06-13 03:13:00,64.2,61.8,29.85,SSW,200,7.6,13.8,92,0.01,RA,,0.01,0.0,WeatherDisplay:10.37,2013-06-13 01:13:00,
2013-06-13 03:18:00,64.1,61.7,29.85,SSW,200,5.6,11.5,92,0.01,RA,,0.01,0.0,WeatherDisplay:10.37,2013-06-13 01:18:00,
2013-06-13 03:23:00,64.1,61.7,29.85,SSW,196,7.7,9.2,92,0.01,RA,,0.01,0.0,WeatherDisplay:10.37,2013-06-13 01:23:00,
2013-06-13 03:28:00,64.1,61.7,29.85,SSW,209,5.7,8.1,92,0.01,RA,,0.01,0.0,WeatherDisplay:10.37,2013-06-13 01:28:00,
2013-06-13 03:33:00,64.1,61.7,29.85,SW,226,4.3,5.8,92,0.01,-RA,,0.01,0.0,WeatherDisplay:10.37,2013-06-13 01:33:00,
2013-06-13 03:38:00,64.1,61.7,29.85,SSW,213,6.1,11.5,92,0.01,-RA,,0.01,0.0,WeatherDisplay:10.37,2013-06-13 01:38:00,
2013-06-13 03:43:00,64.1,61.7,29.85,SW,222,4.3,9.2,92,0.01,-RA,,0.01,0.0,WeatherDisplay:10.37,2013-06-13 01:43:00,
2013-06-13 03:48:00,64.1,61.7,29.85,SW,236,3.7,6.9,92,0.01,-RA,,0.01,0.0,WeatherDisplay:10.37,2013-06-13 01:48:00,
2013-06-13 03:53:00,64.1,61.7,29.86,WSW,253,7.6,13.0,92,0.02,-RA,,0.02,0.0,WeatherDisplay:10.37,2013-06-13 01:53:00,
2013-06-13 03:58:00,63.4,60.7,29.86,WSW,255,8.1,11.5,91,0.02,-RA,,0.02,0.0,WeatherDisplay:10.37,2013-06-13 01:58:00,
2013-06-13 04:03:00,62.9,60.5,29.86,WSW,257,7.7,13.8,92,0.02,-RA,,0.03,0.0,WeatherDisplay:10.37,2013-06-13 02:03:00,
2013-06-13 04:08:00,62.5,60.1,29.86,WSW,238,9.9,15.0,92,0.02,-RA,,0.03,0.0,WeatherDisplay:10.37,2013-06-13 02:08:00,
2013-06-13 04:13:00,62.1,59.7,29.86,WSW,257,9.1,15.0,92,0.02,-RA,,0.03,0.0,WeatherDisplay:10.37,2013-06-13 02:13:00,
2013-06-13 04:18:00,61.8,59.7,29.86,WSW,248,8.6,17.3,93,0.02,-RA,,0.03,0.0,WeatherDisplay:10.37,2013-06-13 02:18:00,
2013-06-13 04:23:00,61.6,59.5,29.86,WSW,244,6.0,10.4,93,0.03,-RA,,0.04,0.0,WeatherDisplay:10.37,2013-06-13 02:23:00,
2013-06-13 04:28:00,61.3,59.2,29.86,WSW,253,12.5,19.6,93,0.03,-RA,,0.04,0.0,WeatherDisplay:10.37,2013-06-13 02:28:00,
2013-06-13 04:33:00,60.9,58.8,29.86,WSW,243,11.9,17.3,93,0.04,RA,,0.05,0.0,WeatherDisplay:10.37,2013-06-13 02:33:00,
2013-06-13 04:38:00,60.7,58.6,29.86,SW,227,15.0,18.4,93,0.04,RA,,0.05,0.0,WeatherDisplay:10.37,2013-06-13 02:38:00,
2013-06-13 04:43:00,60.5,58.4,29.86,SW,224,12.1,13.8,93,0.04,RA,,0.05,0.0,WeatherDisplay:10.37,2013-06-13 02:43:00,
2013-06-13 04:48:00,60.3,58.5,29.86,WSW,238,14.2,18.4,94,0.05,RA,,0.06,0.0,WeatherDisplay:10.37,2013-06-13 02:48:00,
2013-06-13 04:53:00,60.1,58.3,29.86,SSW,204,8.8,16.0,94,0.05,RA,,0.06,0.0,WeatherDisplay:10.37,2013-06-13 02:53:00,
2013-06-13 04:58:00,60.0,58.2,29.85,SW,224,7.1,13.8,94,0.05,RA,,0.07,0.0,WeatherDisplay:10.37,2013-06-13 02:58:00,
2013-06-13 05:03:00,59.9,58.1,29.85,West,263,10.0,13.0,94,0.04,RA,,0.07,0.0,WeatherDisplay:10.37,2013-06-13 03:03:00,
2013-06-13 05:08:00,59.8,58.0,29.85,SW,236,9.5,17.3,94,0.05,RA,,0.08,0.0,WeatherDisplay:10.37,2013-06-13 03:08:00,
2013-06-13 05:13:00,59.6,57.9,29.85,SW,218,10.4,13.0,94,0.05,RA,,0.08,0.0,WeatherDisplay:10.37,2013-06-13 03:13:00,
2013-06-13 05:18:00,59.5,58.0,29.85,WSW,244,8.1,11.5,95,0.05,RA,,0.08,0.0,WeatherDisplay:10.37,2013-06-13 03:18:00,
2013-06-13 05:23:00,59.4,57.7,29.85,WSW,238,9.3,18.0,94,0.04,RA,,0.08,0.0,WeatherDisplay:10.37,2013-06-13 03:23:00,
2013-06-13 05:28:00,59.3,57.8,29.85,WSW,252,7.9,11.5,95,0.04,RA,,0.08,0.0,WeatherDisplay:10.37,2013-06-13 03:28:00,
2013-06-13 05:33:00,59.3,57.8,29.85,WSW,253,6.2,15.0,95,0.03,-RA,,0.08,0.0,WeatherDisplay:10.37,2013-06-13 03:33:00,
2013-06-13 05:38:00,59.3,57.8,29.85,WSW,255,8.9,16.1,95,0.04,-RA,,0.09,0.0,WeatherDisplay:10.37,2013-06-13 03:38:00,
2013-06-13 05:43:00,59.3,57.8,29.85,SW,232,13.6,17.3,95,0.04,-RA,,0.09,0.0,WeatherDisplay:10.37,2013-06-13 03:43:00,
2013-06-13 05:48:00,59.3,57.8,29.85,WSW,258,7.7,9.2,95,0.03,-RA,,0.09,0.0,WeatherDisplay:10.37,2013-06-13 03:48:00,
2013-06-13 05:53:00,59.2,57.7,29.85,SW,221,10.2,15.0,95,0.02,-RA,,0.09,0.0,WeatherDisplay:10.37,2013-06-13 03:53:00,
2013-06-13 05:58:00,59.1,57.4,29.85,WSW,242,9.6,11.5,94,0.02,-RA,,0.09,5.0,WeatherDisplay:10.37,2013-06-13 03:58:00,
2013-06-13 06:01:00,59.1,57.4,29.85,WSW,257,8.3,10.0,94,0.02,-RA,,0.09,5.0,WeatherDisplay:10.37,2013-06-13 04:01:00,
2013-06-13 06:06:00,59.1,57.4,29.85,WSW,244,12.1,15.0,94,0.01,BKN,,0.09,9.0,WeatherDisplay:10.37,2013-06-13 04:06:00,
2013-06-13 06:11:00,59.0,57.3,29.85,WSW,252,8.8,12.7,94,0.01,BKN,,0.09,12.0,WeatherDisplay:10.37,2013-06-13 04:11:00,
2013-06-13 06:16:00,59.0,57.3,29.85,WSW,238,11.7,16.1,94,0.01,BKN,,0.09,16.0,WeatherDisplay:10.37,2013-06-13 04:16:00,
2013-06-13 06:21:00,59.0,57.3,29.85,SW,233,9.7,13.8,94,0.01,BKN,,0.09,18.0,WeatherDisplay:10.37,2013-06-13 04:21:00,
2013-06-13 06:26:00,59.0,57.3,29.85,SW,214,7.3,11.5,94,0.01,BKN,,0.09,18.0,WeatherDisplay:10.37,2013-06-13 04:26:00,
2013-06-13 06:31:00,58.9,57.2,29.85,SW,234,9.6,13.8,94,0.01,BKN,,0.09,23.0,WeatherDisplay:10.37,2013-06-13 04:31:00,
2013-06-13 06:36:00,58.9,57.2,29.85,WSW,240,10.2,15.0,94,0.00,BKN,,0.09,23.0,WeatherDisplay:10.37,2013-06-13 04:36:00,
2013-06-13 06:41:00,58.8,56.8,29.86,WSW,247,7.6,10.4,93,0.00,BKN,,0.09,42.0,WeatherDisplay:10.37,2013-06-13 04:41:00,
2013-06-13 06:46:00,58.8,56.8,29.86,SW,229,7.3,9.2,93,0.00,BKN,,0.09,33.0,WeatherDisplay:10.37,2013-06-13 04:46:00,
2013-06-13 06:51:00,58.8,56.8,29.86,SW,236,10.6,16.1,93,0.00,BKN,,0.09,35.0,WeatherDisplay:10.37,2013-06-13 04:51:00,
2013-06-13 06:56:00,58.7,56.4,29.86,SW,227,10.7,13.8,92,0.00,BKN,,0.09,30.0,WeatherDisplay:10.37,2013-06-13 04:56:00,
2013-06-13 07:01:00,58.7,56.4,29.86,WSW,239,10.4,16.1,92,0.00,-RA,,0.09,30.0,WeatherDisplay:10.37,2013-06-13 05:01:00,
2013-06-13 07:06:00,58.7,56.1,29.86,SW,226,12.4,16.1,91,0.00,-RA,,0.09,32.0,WeatherDisplay:10.37,2013-06-13 05:06:00,
2013-06-13 07:11:00,58.7,55.8,29.86,WSW,255,9.2,12.7,90,0.00,-RA,,0.09,33.0,WeatherDisplay:10.37,2013-06-13 05:11:00,
2013-06-13 07:16:00,58.7,55.8,29.87,SW,234,8.9,12.7,90,0.00,-RA,,0.09,40.0,WeatherDisplay:10.37,2013-06-13 05:16:00,
2013-06-13 07:21:00,58.6,55.3,29.86,WSW,242,9.2,16.1,89,0.00,-RA,,0.09,62.0,WeatherDisplay:10.37,2013-06-13 05:21:00,
2013-06-13 07:26:00,58.6,55.3,29.86,WSW,245,10.5,17.3,89,0.00,-RA,,0.09,84.0,WeatherDisplay:10.37,2013-06-13 05:26:00,
2013-06-13 07:31:00,58.6,55.3,29.86,SW,225,8.1,12.7,89,0.00,-RA,,0.09,81.0,WeatherDisplay:10.37,2013-06-13 05:31:00,
2013-06-13 07:36:00,58.7,55.4,29.86,WSW,248,11.5,16.1,89,0.00,-RA,,0.09,91.0,WeatherDisplay:10.37,2013-06-13 05:36:00,
2013-06-13 07:41:00,58.7,55.4,29.86,WSW,245,8.6,12.7,89,0.00,-RA,,0.09,116.0,WeatherDisplay:10.37,2013-06-13 05:41:00,
2013-06-13 07:46:00,58.8,55.5,29.86,WSW,248,10.6,15.0,89,0.00,-RA,,0.09,130.0,WeatherDisplay:10.37,2013-06-13 05:46:00,
2013-06-13 07:51:00,58.8,55.2,29.86,WSW,252,15.7,20.0,88,0.00,-RA,,0.09,107.0,WeatherDisplay:10.37,2013-06-13 05:51:00,
2013-06-13 07:56:00,58.7,55.1,29.86,SW,221,11.1,16.1,88,0.00,-RA,,0.09,95.0,WeatherDisplay:10.37,2013-06-13 05:56:00,
2013-06-13 08:01:00,58.6,55.0,29.86,WSW,241,14.4,19.6,88,0.00,OVC,,0.09,135.0,WeatherDisplay:10.37,2013-06-13 06:01:00,
2013-06-13 08:06:00,58.5,54.6,29.86,SW,231,7.8,13.8,87,0.00,OVC,,0.09,153.0,WeatherDisplay:10.37,2013-06-13 06:06:00,
2013-06-13 08:11:00,58.6,54.1,29.87,WSW,242,15.2,19.6,85,0.00,OVC,,0.09,172.0,WeatherDisplay:10.37,2013-06-13 06:11:00,
2013-06-13 08:16:00,58.7,53.9,29.86,WSW,253,12.3,21.9,84,0.00,OVC,,0.09,148.0,WeatherDisplay:10.37,2013-06-13 06:16:00,
2013-06-13 08:21:00,58.8,54.0,29.86,WSW,250,11.1,19.6,84,0.00,OVC,,0.09,128.0,WeatherDisplay:10.37,2013-06-13 06:21:00,
2013-06-13 08:26:00,58.8,53.6,29.87,SW,233,15.6,19.6,83,0.00,OVC,,0.09,107.0,WeatherDisplay:10.37,2013-06-13 06:26:00,
2013-06-13 08:31:00,58.7,53.5,29.87,WSW,246,12.8,21.9,83,0.00,OVC,,0.09,134.0,WeatherDisplay:10.37,2013-06-13 06:31:00,
2013-06-13 08:36:00,58.7,53.9,29.87,WSW,239,10.8,17.3,84,0.00,OVC,,0.09,148.0,WeatherDisplay:10.37,2013-06-13 06:36:00,
2013-06-13 08:41:00,58.7,53.9,29.87,WSW,238,15.7,21.9,84,0.00,OVC,,0.09,165.0,WeatherDisplay:10.37,2013-06-13 06:41:00,
2013-06-13 08:46:00,58.8,53.6,29.87,WSW,244,12.9,19.6,83,0.00,OVC,,0.09,186.0,WeatherDisplay:10.37,2013-06-13 06:46:00,
2013-06-13 08:51:00,58.8,53.6,29.87,WSW,244,10.1,19.6,83,0.00,OVC,,0.09,206.0,WeatherDisplay:10.37,2013-06-13 06:51:00,
2013-06-13 08:56:00,58.9,54.1,29.88,West,259,8.7,11.5,84,0.00,OVC,,0.09,209.0,WeatherDisplay:10.37,2013-06-13 06:56:00,
2013-06-13 09:01:00,58.9,54.1,29.88,WSW,257,10.5,20.0,84,0.00,OVC,,0.09,385.0,WeatherDisplay:10.37,2013-06-13 07:01:00,
2013-06-13 09:06:00,59.0,53.8,29.87,WNW,284,12.3,19.6,83,0.00,OVC,,0.09,308.0,WeatherDisplay:10.37,2013-06-13 07:06:00,
2013-06-13 09:11:00,59.1,54.2,29.87,SW,222,8.8,16.1,84,0.00,OVC,,0.09,262.0,WeatherDisplay:10.37,2013-06-13 07:11:00,
2013-06-13 09:16:00,59.2,54.0,29.88,SW,226,7.8,17.3,83,0.00,OVC,,0.09,285.0,WeatherDisplay:10.37,2013-06-13 07:16:00,
2013-06-13 09:21:00,59.2,54.0,29.87,WSW,242,9.3,19.6,83,0.00,OVC,,0.09,274.0,WeatherDisplay:10.37,2013-06-13 07:21:00,
2013-06-13 09:28:00,59.3,53.8,29.87,WSW,244,14.0,14.0,82,0.00,RA,,0.09,364.0,WeatherDisplay:10.37,2013-06-13 07:28:00,
2013-06-13 09:33:00,59.5,54.0,29.87,SW,226,12.5,15.0,82,0.00,RA,,0.09,329.0,WeatherDisplay:10.37,2013-06-13 07:33:00,
2013-06-13 09:38:00,59.7,53.8,29.88,SSW,207,8.4,10.0,81,0.00,RA,,0.09,387.0,WeatherDisplay:10.37,2013-06-13 07:38:00,
2013-06-13 09:43:00,59.8,53.9,29.87,West,259,8.9,15.0,81,0.00,RA,,0.09,383.0,WeatherDisplay:10.37,2013-06-13 07:43:00,
2013-06-13 09:48:00,60.0,54.1,29.87,SW,234,9.5,15.0,81,0.00,BKN,,0.09,346.0,WeatherDisplay:10.37,2013-06-13 07:48:00,
2013-06-13 09:53:00,60.0,54.1,29.87,WSW,241,10.1,19.6,81,0.00,BKN,,0.09,237.0,WeatherDisplay:10.37,2013-06-13 07:53:00,
2013-06-13 09:58:00,60.0,54.1,29.88,SW,234,14.5,19.6,81,0.00,BKN,,0.09,434.0,WeatherDisplay:10.37,2013-06-13 07:58:00,
2013-06-13 10:03:00,60.0,54.1,29.88,SW,230,11.4,16.1,81,0.00,BKN,,0.09,315.0,WeatherDisplay:10.37,2013-06-13 08:03:00,
2013-06-13 10:08:00,60.0,54.1,29.87,SW,236,11.5,21.9,81,0.00,BKN,,0.09,454.0,WeatherDisplay:10.37,2013-06-13 08:08:00,
2013-06-13 10:13:00,60.3,54.4,29.87,WSW,253,14.7,20.7,81,0.00,BKN,,0.09,436.0,WeatherDisplay:10.37,2013-06-13 08:13:00,
2013-06-13 10:18:00,60.6,54.4,29.87,WSW,246,13.7,20.7,80,0.00,BKN,,0.09,315.0,WeatherDisplay:10.37,2013-06-13 08:18:00,
2013-06-13 10:23:00,60.8,54.9,29.87,WSW,244,11.0,13.8,81,0.00,BKN,,0.09,387.0,WeatherDisplay:10.37,2013-06-13 08:23:00,
2013-06-13 10:28:00,61.0,54.8,29.87,WSW,248,9.5,17.3,80,0.00,BKN,,0.09,415.0,WeatherDisplay:10.37,2013-06-13 08:28:00,
2013-06-13 10:33:00,61.0,54.4,29.87,WSW,240,11.4,19.6,79,0.00,BKN,,0.09,327.0,WeatherDisplay:10.37,2013-06-13 08:33:00,
2013-06-13 10:38:00,61.0,54.1,29.86,SW,227,10.1,18.4,78,0.00,BKN,,0.09,376.0,WeatherDisplay:10.37,2013-06-13 08:38:00,
2013-06-13 10:43:00,60.9,54.0,29.87,SW,225,13.1,21.9,78,0.00,BKN,,0.09,294.0,WeatherDisplay:10.37,2013-06-13 08:43:00,
2013-06-13 10:48:00,60.9,54.0,29.87,SW,218,14.9,16.1,78,0.00,BKN,,0.09,355.0,WeatherDisplay:10.37,2013-06-13 08:48:00,
2013-06-13 10:53:00,60.9,54.0,29.86,SW,232,10.6,20.7,78,0.00,BKN,,0.09,501.0,WeatherDisplay:10.37,2013-06-13 08:53:00,
2013-06-13 10:58:00,61.3,54.0,29.87,SW,228,11.0,16.1,77,0.00,BKN,,0.09,557.0,WeatherDisplay:10.37,2013-06-13 08:58:00,
2013-06-13 11:03:00,61.5,54.2,29.86,SW,233,14.0,20.7,77,0.00,BKN,,0.09,369.0,WeatherDisplay:10.37,2013-06-13 09:03:00,
2013-06-13 11:08:00,61.5,54.2,29.86,WSW,246,14.1,22.0,77,0.00,BKN,,0.09,341.0,WeatherDisplay:10.37,2013-06-13 09:08:00,
2013-06-13 11:13:00,61.4,53.7,29.86,SW,233,15.9,26.5,76,0.00,BKN,,0.09,323.0,WeatherDisplay:10.37,2013-06-13 09:13:00,
2013-06-13 11:18:00,61.3,54.0,29.86,WSW,248,11.0,13.8,77,0.00,BKN,,0.09,371.0,WeatherDisplay:10.37,2013-06-13 09:18:00,
2013-06-13 11:23:00,61.6,54.7,29.86,SW,220,7.9,15.0,78,0.00,BKN,,0.09,371.0,WeatherDisplay:10.37,2013-06-13 09:23:00,
2013-06-13 11:28:00,62.0,54.0,29.87,WSW,243,15.0,21.9,75,0.00,BKN,,0.09,348.0,WeatherDisplay:10.37,2013-06-13 09:28:00,
2013-06-13 11:33:00,61.9,54.2,29.86,WSW,247,11.2,19.6,76,0.00,BKN,,0.09,295.0,WeatherDisplay:10.37,2013-06-13 09:33:00,
2013-06-13 11:38:00,61.7,53.7,29.86,SW,236,11.5,19.6,75,0.00,BKN,,0.09,420.0,WeatherDisplay:10.37,2013-06-13 09:38:00,
2013-06-13 11:43:00,61.9,54.2,29.87,WSW,238,10.3,19.6,76,0.00,BKN,,0.09,849.0,WeatherDisplay:10.37,2013-06-13 09:43:00,
2013-06-13 11:48:00,62.4,54.4,29.87,SW,235,14.9,20.7,75,0.00,BKN,,0.09,773.0,WeatherDisplay:10.37,2013-06-13 09:48:00,
2013-06-13 11:53:00,62.8,54.7,29.87,WSW,242,16.1,23.0,75,0.00,BKN,,0.09,1048.0,WeatherDisplay:10.37,2013-06-13 09:53:00,
2013-06-13 11:58:00,63.0,54.9,29.86,WSW,238,14.0,21.9,75,0.00,BKN,,0.09,485.0,WeatherDisplay:10.37,2013-06-13 09:58:00,
2013-06-13 12:03:00,62.8,54.4,29.86,SW,235,15.8,20.7,74,0.00,BKN,,0.09,478.0,WeatherDisplay:10.37,2013-06-13 10:03:00,
2013-06-13 12:08:00,62.7,54.3,29.86,SW,233,16.1,19.6,74,0.00,BKN,,0.09,422.0,WeatherDisplay:10.37,2013-06-13 10:08:00,
2013-06-13 12:13:00,62.9,54.5,29.86,SW,229,10.3,18.4,74,0.00,BKN,,0.09,455.0,WeatherDisplay:10.37,2013-06-13 10:13:00,
2013-06-13 12:18:00,63.2,54.8,29.86,West,259,14.0,16.1,74,0.00,BKN,,0.09,425.0,WeatherDisplay:10.37,2013-06-13 10:18:00,
2013-06-13 12:23:00,62.9,54.5,29.86,SW,224,14.2,21.9,74,0.00,BKN,,0.09,408.0,WeatherDisplay:10.37,2013-06-13 10:23:00,
2013-06-13 12:28:00,62.9,54.5,29.86,WSW,250,12.8,17.3,74,0.00,BKN,,0.09,492.0,WeatherDisplay:10.37,2013-06-13 10:28:00,
2013-06-13 12:33:00,63.0,54.9,29.86,WSW,245,7.9,14.0,75,0.00,BKN,,0.09,332.0,WeatherDisplay:10.37,2013-06-13 10:33:00,
2013-06-13 12:38:00,63.0,54.9,29.86,WSW,238,6.5,12.7,75,0.00,BKN,,0.09,413.0,WeatherDisplay:10.37,2013-06-13 10:38:00,
2013-06-13 12:43:00,63.0,54.9,29.86,SW,227,12.2,19.0,75,0.00,BKN,,0.09,684.0,WeatherDisplay:10.37,2013-06-13 10:43:00,
2013-06-13 12:48:00,63.0,54.6,29.86,SW,236,15.7,24.2,74,0.00,BKN,,0.09,533.0,WeatherDisplay:10.37,2013-06-13 10:48:00,
2013-06-13 12:53:00,62.9,54.5,29.86,WSW,246,13.0,23.0,74,0.00,BKN,,0.09,657.0,WeatherDisplay:10.37,2013-06-13 10:53:00,
2013-06-13 12:58:00,63.0,54.9,29.86,WSW,238,10.0,13.8,75,0.00,BKN,,0.09,408.0,WeatherDisplay:10.37,2013-06-13 10:58:00,
2013-06-13 13:03:00,63.4,55.3,29.86,SW,223,11.4,23.0,75,0.00,BKN,,0.09,526.0,WeatherDisplay:10.37,2013-06-13 11:03:00,
2013-06-13 13:08:00,63.4,54.6,29.86,WSW,248,10.6,16.1,73,0.00,BKN,,0.09,434.0,WeatherDisplay:10.37,2013-06-13 11:08:00,
2013-06-13 13:13:00,63.7,55.6,29.86,WSW,238,13.6,16.0,75,0.00,BKN,,0.09,394.0,WeatherDisplay:10.37,2013-06-13 11:13:00,
2013-06-13 13:18:00,63.3,54.5,29.86,WSW,239,11.0,24.2,73,0.00,BKN,,0.09,399.0,WeatherDisplay:10.37,2013-06-13 11:18:00,
2013-06-13 13:23:00,63.0,54.2,29.86,SW,229,10.2,18.4,73,0.00,BKN,,0.09,290.0,WeatherDisplay:10.37,2013-06-13 11:23:00,
2013-06-13 13:28:00,62.7,54.6,29.86,West,259,10.2,17.3,75,0.00,BKN,,0.09,271.0,WeatherDisplay:10.37,2013-06-13 11:28:00,
2013-06-13 13:33:00,62.3,54.3,29.86,SW,232,11.0,18.4,75,0.00,SCT,,0.09,248.0,WeatherDisplay:10.37,2013-06-13 11:33:00,
2013-06-13 13:38:00,62.1,54.4,29.87,SW,215,11.9,20.7,76,0.00,SCT,,0.09,229.0,WeatherDisplay:10.37,2013-06-13 11:38:00,
2013-06-13 13:43:00,61.6,53.9,29.88,WSW,254,16.3,20.7,76,0.00,SCT,,0.09,260.0,WeatherDisplay:10.37,2013-06-13 11:43:00,
2013-06-13 13:48:00,61.4,53.7,29.88,WSW,239,14.3,20.7,76,0.00,SCT,,0.09,304.0,WeatherDisplay:10.37,2013-06-13 11:48:00,
2013-06-13 13:53:00,61.3,54.0,29.88,WSW,253,15.5,24.2,77,0.00,SCT,,0.09,257.0,WeatherDisplay:10.37,2013-06-13 11:53:00,
2013-06-13 13:58:00,61.4,54.1,29.88,SW,233,14.7,20.7,77,0.00,SCT,,0.09,413.0,WeatherDisplay:10.37,2013-06-13 11:58:00,
2013-06-13 14:03:00,61.8,54.5,29.88,WSW,245,13.5,18.4,77,0.00,BKN,,0.09,380.0,WeatherDisplay:10.37,2013-06-13 12:03:00,
2013-06-13 14:08:00,61.8,53.8,29.88,WSW,249,15.3,24.0,75,0.00,BKN,,0.09,320.0,WeatherDisplay:10.37,2013-06-13 12:08:00,
2013-06-13 14:13:00,61.6,53.6,29.88,SSW,213,12.2,24.2,75,0.00,BKN,,0.09,239.0,WeatherDisplay:10.37,2013-06-13 12:13:00,
2013-06-13 14:18:00,61.5,53.5,29.88,WSW,244,11.2,19.6,75,0.00,BKN,,0.09,197.0,WeatherDisplay:10.37,2013-06-13 12:18:00,
2013-06-13 14:23:00,61.1,53.1,29.88,WSW,246,14.0,21.9,75,0.00,BKN,,0.09,118.0,WeatherDisplay:10.37,2013-06-13 12:23:00,
2013-06-13 14:28:00,60.7,52.7,29.88,WSW,245,16.6,25.3,75,0.00,BKN,,0.09,118.0,WeatherDisplay:10.37,2013-06-13 12:28:00,
2013-06-13 14:33:00,60.5,52.5,29.89,SW,228,17.9,21.9,75,0.00,OVC,,0.09,118.0,WeatherDisplay:10.37,2013-06-13 12:33:00,
2013-06-13 14:38:00,60.3,53.0,29.89,WSW,244,13.4,16.1,77,0.00,OVC,,0.09,144.0,WeatherDisplay:10.37,2013-06-13 12:38:00,
2013-06-13 14:43:00,60.1,53.2,29.89,SW,234,16.3,24.2,78,0.00,OVC,,0.09,142.0,WeatherDisplay:10.37,2013-06-13 12:43:00,
2013-06-13 14:48:00,59.7,53.5,29.89,SW,223,14.5,23.0,80,0.00,OVC,,0.09,149.0,WeatherDisplay:10.37,2013-06-13 12:48:00,
2013-06-13 14:53:00,59.4,53.5,29.89,WSW,257,13.5,24.2,81,0.00,OVC,,0.09,127.0,WeatherDisplay:10.37,2013-06-13 12:53:00,
2013-06-13 14:58:00,59.3,53.4,29.89,WSW,246,11.1,18.4,81,0.01,RA,,0.09,146.0,WeatherDisplay:10.37,2013-06-13 12:58:00,
2013-06-13 15:03:00,59.3,53.8,29.89,SW,219,12.0,19.6,82,0.01,RA,,0.09,162.0,WeatherDisplay:10.37,2013-06-13 13:03:00,
2013-06-13 15:08:00,59.4,53.9,29.88,WSW,239,12.6,13.8,82,0.01,RA,,0.09,193.0,WeatherDisplay:10.37,2013-06-13 13:08:00,
2013-06-13 15:13:00,59.6,54.1,29.88,South,178,9.6,16.1,82,0.01,RA,,0.09,158.0,WeatherDisplay:10.37,2013-06-13 13:13:00,
2013-06-13 15:18:00,59.8,53.9,29.88,SW,230,13.7,22.0,81,0.01,RA,,0.09,206.0,WeatherDisplay:10.37,2013-06-13 13:18:00,
2013-06-13 15:23:00,60.0,53.8,29.88,WSW,239,10.7,18.4,80,0.01,SCT,,0.09,171.0,WeatherDisplay:10.37,2013-06-13 13:23:00,
2013-06-13 15:28:00,60.1,53.2,29.88,SW,235,11.2,19.6,78,0.01,SCT,,0.09,193.0,WeatherDisplay:10.37,2013-06-13 13:28:00,
2013-06-13 15:33:00,60.1,53.2,29.88,SSW,211,15.1,19.6,78,0.01,-RA,,0.09,149.0,WeatherDisplay:10.37,2013-06-13 13:33:00,
2013-06-13 15:38:00,59.8,53.3,29.88,SW,235,13.7,19.6,79,0.01,-RA,,0.09,178.0,WeatherDisplay:10.37,2013-06-13 13:38:00,
2013-06-13 15:43:00,59.6,53.1,29.87,SW,226,14.2,25.3,79,0.01,-RA,,0.09,188.0,WeatherDisplay:10.37,2013-06-13 13:43:00,
2013-06-13 15:48:00,59.5,53.3,29.88,SW,236,15.5,20.7,80,0.01,-RA,,0.09,146.0,WeatherDisplay:10.37,2013-06-13 13:48:00,
2013-06-13 15:53:00,59.4,53.5,29.88,SW,230,9.3,11.5,81,0.01,-RA,,0.09,97.0,WeatherDisplay:10.37,2013-06-13 13:53:00,
2013-06-13 15:58:00,59.3,53.8,29.88,SW,226,11.1,19.6,82,0.00,-RA,,0.09,69.0,WeatherDisplay:10.37,2013-06-13 13:58:00,
2013-06-13 16:03:00,59.0,53.2,29.88,WSW,247,14.3,22.0,81,0.00,-RA,,0.09,162.0,WeatherDisplay:10.37,2013-06-13 14:03:00,
2013-06-13 16:08:00,59.0,53.5,29.88,SW,218,9.5,23.0,82,0.00,-RA,,0.09,190.0,WeatherDisplay:10.37,2013-06-13 14:08:00,
2013-06-13 16:13:00,59.2,53.7,29.87,SSW,199,8.7,13.8,82,0.00,-RA,,0.09,236.0,WeatherDisplay:10.37,2013-06-13 14:13:00,
2013-06-13 16:18:00,59.4,53.5,29.88,SW,231,13.3,24.2,81,0.00,-RA,,0.09,186.0,WeatherDisplay:10.37,2013-06-13 14:18:00,
2013-06-13 16:23:00,59.5,53.6,29.88,WSW,240,7.8,20.7,81,0.00,-RA,,0.09,186.0,WeatherDisplay:10.37,2013-06-13 14:23:00,
2013-06-13 16:28:00,59.5,53.3,29.88,WSW,254,16.1,19.6,80,0.00,-RA,,0.09,200.0,WeatherDisplay:10.37,2013-06-13 14:28:00,
2013-06-13 16:33:00,59.5,53.3,29.87,West,260,10.2,18.4,80,0.00,OVC,,0.09,185.0,WeatherDisplay:10.37,2013-06-13 14:33:00,
2013-06-13 16:38:00,59.6,53.4,29.87,SW,219,10.2,13.8,80,0.00,OVC,,0.09,128.0,WeatherDisplay:10.37,2013-06-13 14:38:00,
2013-06-13 16:43:00,59.3,53.1,29.88,SW,216,14.5,24.2,80,0.00,OVC,,0.09,113.0,WeatherDisplay:10.37,2013-06-13 14:43:00,
2013-06-13 16:48:00,59.2,53.4,29.88,SW,223,7.5,19.6,81,0.00,OVC,,0.09,135.0,WeatherDisplay:10.37,2013-06-13 14:48:00,
2013-06-13 16:53:00,59.1,53.6,29.88,SW,218,13.3,23.0,82,0.00,OVC,,0.09,123.0,WeatherDisplay:10.37,2013-06-13 14:53:00,
2013-06-13 16:58:00,59.0,53.8,29.87,SW,232,10.0,12.7,83,0.00,OVC,,0.09,167.0,WeatherDisplay:10.37,2013-06-13 14:58:00,
2013-06-13 17:03:00,58.8,53.6,29.88,SW,233,11.6,23.0,83,0.00,-DZ,,0.09,113.0,WeatherDisplay:10.37,2013-06-13 15:03:00,
2013-06-13 17:08:00,58.8,53.6,29.87,SW,233,10.1,15.0,83,0.00,-DZ,,0.09,181.0,WeatherDisplay:10.37,2013-06-13 15:08:00,
2013-06-13 17:13:00,58.8,53.6,29.88,SSW,198,15.1,19.6,83,0.00,-DZ,,0.09,146.0,WeatherDisplay:10.37,2013-06-13 15:13:00,
2013-06-13 17:18:00,58.8,53.6,29.88,SW,223,7.1,13.0,83,0.00,-DZ,,0.09,153.0,WeatherDisplay:10.37,2013-06-13 15:18:00,
2013-06-13 17:23:00,58.8,53.6,29.87,SW,236,7.1,16.1,83,0.00,-DZ,,0.09,149.0,WeatherDisplay:10.37,2013-06-13 15:23:00,
2013-06-13 17:28:00,58.8,53.3,29.87,WSW,248,14.2,18.4,82,0.00,-DZ,,0.09,142.0,WeatherDisplay:10.37,2013-06-13 15:28:00,
2013-06-13 17:33:00,58.8,53.0,29.87,SW,230,12.0,20.7,81,0.00,-RA,,0.09,190.0,WeatherDisplay:10.37,2013-06-13 15:33:00,
2013-06-13 17:38:00,59.0,52.8,29.87,WSW,244,11.7,19.6,80,0.00,-RA,,0.09,188.0,WeatherDisplay:10.37,2013-06-13 15:38:00,
2013-06-13 17:43:00,59.0,52.8,29.87,SSW,208,15.0,18.4,80,0.00,-RA,,0.09,190.0,WeatherDisplay:10.37,2013-06-13 15:43:00,
2013-06-13 17:48:00,59.0,52.1,29.87,SW,223,12.5,23.0,78,0.00,-RA,,0.09,193.0,WeatherDisplay:10.37,2013-06-13 15:48:00,
2013-06-13 17:53:00,59.0,52.1,29.87,SW,232,11.1,19.0,78,0.00,-RA,,0.09,185.0,WeatherDisplay:10.37,2013-06-13 15:53:00,
2013-06-13 17:58:00,59.0,52.1,29.88,SW,230,14.3,26.0,78,0.00,-RA,,0.09,221.0,WeatherDisplay:10.37,2013-06-13 15:58:00,
2013-06-13 18:03:00,58.9,51.3,29.88,SW,220,15.9,20.7,76,0.00,BKN,,0.09,190.0,WeatherDisplay:10.37,2013-06-13 16:03:00,
2013-06-13 18:08:00,59.0,51.8,29.87,SW,232,13.3,23.0,77,0.00,BKN,,0.09,193.0,WeatherDisplay:10.37,2013-06-13 16:08:00,
2013-06-13 18:13:00,58.9,51.3,29.87,WSW,244,16.1,24.2,76,0.00,BKN,,0.09,151.0,WeatherDisplay:10.37,2013-06-13 16:13:00,
2013-06-13 18:18:00,59.0,51.8,29.87,SSW,207,10.4,16.1,77,0.00,BKN,,0.09,186.0,WeatherDisplay:10.37,2013-06-13 16:18:00,
2013-06-13 18:23:00,59.1,51.5,29.87,SSW,212,10.3,20.7,76,0.00,BKN,,0.09,153.0,WeatherDisplay:10.37,2013-06-13 16:23:00,
2013-06-13 18:28:00,59.0,51.1,29.87,WSW,237,16.0,20.7,75,0.00,BKN,,0.09,120.0,WeatherDisplay:10.37,2013-06-13 16:28:00,
2013-06-13 18:33:00,59.0,51.1,29.87,SW,225,18.3,24.2,75,0.00,BKN,,0.09,95.0,WeatherDisplay:10.37,2013-06-13 16:33:00,
2013-06-13 18:38:00,59.0,51.4,29.87,SW,223,10.5,19.6,76,0.00,BKN,,0.09,100.0,WeatherDisplay:10.37,2013-06-13 16:38:00,
2013-06-13 18:43:00,58.9,51.3,29.87,SW,214,12.0,12.7,76,0.00,BKN,,0.09,113.0,WeatherDisplay:10.37,2013-06-13 16:43:00,
2013-06-13 18:48:00,58.9,51.7,29.87,SW,234,11.0,15.0,77,0.00,BKN,,0.09,77.0,WeatherDisplay:10.37,2013-06-13 16:48:00,
2013-06-13 18:53:00,58.9,51.3,29.86,SW,229,14.5,23.0,76,0.00,BKN,,0.09,169.0,WeatherDisplay:10.37,2013-06-13 16:53:00,
2013-06-13 18:58:00,59.0,51.8,29.87,WSW,247,10.8,15.0,77,0.00,BKN,,0.09,141.0,WeatherDisplay:10.37,2013-06-13 16:58:00,
2013-06-13 19:03:00,59.0,51.4,29.87,SSW,213,15.9,21.9,76,0.00,OVC,,0.09,230.0,WeatherDisplay:10.37,2013-06-13 17:03:00,
2013-06-13 19:08:00,59.1,51.2,29.87,WSW,247,17.1,20.7,75,0.00,OVC,,0.09,283.0,WeatherDisplay:10.37,2013-06-13 17:08:00,
2013-06-13 19:13:00,59.3,51.4,29.87,WSW,250,14.8,24.2,75,0.00,OVC,,0.09,202.0,WeatherDisplay:10.37,2013-06-13 17:13:00,
2013-06-13 19:18:00,59.3,51.7,29.88,SW,216,13.7,24.2,76,0.00,OVC,,0.09,151.0,WeatherDisplay:10.37,2013-06-13 17:18:00,
2013-06-13 19:23:00,59.2,51.3,29.88,West,271,14.9,26.5,75,0.00,OVC,,0.09,149.0,WeatherDisplay:10.37,2013-06-13 17:23:00,
2013-06-13 19:28:00,59.3,51.4,29.88,SSW,211,14.8,25.3,75,0.00,OVC,,0.09,239.0,WeatherDisplay:10.37,2013-06-13 17:28:00,
2013-06-13 19:33:00,59.4,51.1,29.87,WSW,252,19.0,30.0,74,0.00,OVC,,0.09,144.0,WeatherDisplay:10.37,2013-06-13 17:33:00,
2013-06-13 19:38:00,59.3,51.0,29.88,WSW,242,19.1,24.2,74,0.00,OVC,,0.09,142.0,WeatherDisplay:10.37,2013-06-13 17:38:00,
2013-06-13 19:43:00,59.1,50.8,29.87,WSW,252,15.5,24.2,74,0.00,OVC,,0.09,97.0,WeatherDisplay:10.37,2013-06-13 17:43:00,
2013-06-13 19:48:00,59.0,50.7,29.88,WSW,238,16.1,28.8,74,0.00,OVC,,0.09,116.0,WeatherDisplay:10.37,2013-06-13 17:48:00,
2013-06-13 19:53:00,59.0,50.7,29.88,SW,221,12.4,26.5,74,0.00,OVC,,0.09,123.0,WeatherDisplay:10.37,2013-06-13 17:53:00,
2013-06-13 19:58:00,59.0,50.7,29.88,SW,236,20.3,32.2,74,0.00,OVC,,0.09,107.0,WeatherDisplay:10.37,2013-06-13 17:58:00,
2013-06-13 20:03:00,58.9,51.0,29.88,West,269,18.2,26.0,75,0.00,OVC,,0.09,79.0,WeatherDisplay:10.37,2013-06-13 18:03:00,
2013-06-13 20:08:00,58.8,50.9,29.88,WSW,253,14.5,24.2,75,0.00,OVC,,0.09,102.0,WeatherDisplay:10.37,2013-06-13 18:08:00,
2013-06-13 20:13:00,58.8,51.2,29.88,WSW,248,18.1,24.2,76,0.00,OVC,,0.09,97.0,WeatherDisplay:10.37,2013-06-13 18:13:00,
2013-06-13 20:18:00,58.7,51.1,29.88,WSW,258,16.7,27.6,76,0.00,OVC,,0.09,86.0,WeatherDisplay:10.37,2013-06-13 18:18:00,
2013-06-13 20:23:00,58.6,51.4,29.88,WSW,250,15.0,19.6,77,0.00,OVC,,0.09,84.0,WeatherDisplay:10.37,2013-06-13 18:23:00,
2013-06-13 20:28:00,58.5,51.3,29.88,WSW,244,13.7,18.4,77,0.00,OVC,,0.09,91.0,WeatherDisplay:10.37,2013-06-13 18:28:00,
2013-06-13 20:33:00,58.4,51.5,29.87,SW,221,20.4,25.3,78,0.00,BKN,,0.09,35.0,WeatherDisplay:10.37,2013-06-13 18:33:00,
2013-06-13 20:38:00,58.2,51.4,29.88,WSW,240,17.0,26.0,78,0.00,BKN,,0.09,30.0,WeatherDisplay:10.37,2013-06-13 18:38:00,
2013-06-13 20:43:00,57.9,51.1,29.88,WSW,238,16.1,23.0,78,0.00,BKN,,0.09,26.0,WeatherDisplay:10.37,2013-06-13 18:43:00,
2013-06-13 20:48:00,57.8,51.3,29.88,SW,232,20.3,28.8,79,0.00,BKN,,0.09,33.0,WeatherDisplay:10.37,2013-06-13 18:48:00,
2013-06-13 20:53:00,57.7,51.2,29.89,SW,234,19.4,20.7,79,0.00,BKN,,0.09,28.0,WeatherDisplay:10.37,2013-06-13 18:53:00,
2013-06-13 20:58:00,57.7,51.6,29.88,WSW,247,10.4,16.1,80,0.00,BKN,,0.09,30.0,WeatherDisplay:10.37,2013-06-13 18:58:00,
2013-06-13 21:03:00,57.7,51.6,29.88,WSW,243,14.2,24.2,80,0.00,BKN,,0.09,32.0,WeatherDisplay:10.37,2013-06-13 19:03:00,
2013-06-13 21:08:00,57.8,51.6,29.89,SSW,198,13.9,17.3,80,0.00,BKN,,0.09,30.0,WeatherDisplay:10.37,2013-06-13 19:08:00,
2013-06-13 21:13:00,57.9,51.4,29.88,SW,236,13.4,18.4,79,0.00,SCT,,0.09,25.0,WeatherDisplay:10.37,2013-06-13 19:13:00,
2013-06-13 21:18:00,57.9,51.7,29.89,WSW,246,15.8,19.6,80,0.00,SCT,,0.09,26.0,WeatherDisplay:10.37,2013-06-13 19:18:00,
2013-06-13 21:23:00,57.9,51.7,29.89,SSW,194,13.6,19.6,80,0.00,SCT,,0.09,12.0,WeatherDisplay:10.37,2013-06-13 19:23:00,
2013-06-13 21:29:00,57.9,51.7,29.89,SSW,204,19.0,24.0,80,0.00,RA,,0.09,7.0,WeatherDisplay:10.37,2013-06-13 19:29:00,
2013-06-13 21:34:00,57.9,51.7,29.89,SW,222,16.0,23.0,80,0.00,RA,,0.09,5.0,WeatherDisplay:10.37,2013-06-13 19:34:00,
2013-06-13 21:39:00,57.8,51.6,29.89,SW,230,12.7,23.0,80,0.00,RA,,0.09,5.0,WeatherDisplay:10.37,2013-06-13 19:39:00,
2013-06-13 21:44:00,57.7,51.9,29.89,SW,225,14.5,22.0,81,0.00,RA,,0.09,7.0,WeatherDisplay:10.37,2013-06-13 19:44:00,
2013-06-13 21:49:00,57.6,51.8,29.89,SW,234,12.1,23.0,81,0.00,BKN,,0.09,7.0,WeatherDisplay:10.37,2013-06-13 19:49:00,
2013-06-13 21:54:00,57.5,51.7,29.89,SW,231,11.0,23.0,81,0.00,BKN,,0.09,5.0,WeatherDisplay:10.37,2013-06-13 19:54:00,
2013-06-13 21:59:00,57.5,52.0,29.90,WSW,240,11.8,19.6,82,0.00,BKN,,0.09,5.0,WeatherDisplay:10.37,2013-06-13 19:59:00,
2013-06-13 22:04:00,57.3,52.2,29.90,WSW,241,13.2,16.1,83,0.00,BKN,,0.09,0.0,WeatherDisplay:10.37,2013-06-13 20:04:00,
2013-06-13 22:09:00,57.0,51.9,29.90,WSW,242,16.6,19.6,83,0.00,BKN,,0.09,0.0,WeatherDisplay:10.37,2013-06-13 20:09:00,
2013-06-13 22:14:00,56.8,52.0,29.90,WSW,248,14.1,23.0,84,0.00,BKN,,0.09,0.0,WeatherDisplay:10.37,2013-06-13 20:14:00,
2013-06-13 22:19:00,56.6,52.1,29.90,West,267,12.0,17.3,85,0.00,BKN,,0.09,0.0,WeatherDisplay:10.37,2013-06-13 20:19:00,
2013-06-13 22:24:00,56.5,52.0,29.91,SW,232,11.7,18.4,85,0.00,OVC,,0.09,0.0,WeatherDisplay:10.37,2013-06-13 20:24:00,
2013-06-13 22:29:00,56.6,52.1,29.91,SW,230,12.4,24.2,85,0.00,OVC,,0.09,0.0,WeatherDisplay:10.37,2013-06-13 20:29:00,
2013-06-13 22:34:00,56.6,52.1,29.92,WSW,248,16.4,20.7,85,0.00,SCT,,0.09,0.0,WeatherDisplay:10.37,2013-06-13 20:34:00,
2013-06-13 22:39:00,56.7,51.9,29.92,WSW,240,15.5,19.6,84,0.00,SCT,,0.09,0.0,WeatherDisplay:10.37,2013-06-13 20:39:00,
2013-06-13 22:44:00,56.7,51.9,29.92,SW,223,14.4,17.3,84,0.00,SCT,,0.09,0.0,WeatherDisplay:10.37,2013-06-13 20:44:00,
2013-06-13 22:49:00,56.6,52.1,29.92,WSW,256,13.1,19.6,85,0.00,SCT,,0.09,0.0,WeatherDisplay:10.37,2013-06-13 20:49:00,
2013-06-13 22:54:00,56.6,52.1,29.93,SW,221,13.2,23.0,85,0.00,SCT,,0.09,0.0,WeatherDisplay:10.37,2013-06-13 20:54:00,
2013-06-13 22:59:00,56.4,51.9,29.93,WSW,249,10.7,14.0,85,0.00,SCT,,0.09,0.0,WeatherDisplay:10.37,2013-06-13 20:59:00,
2013-06-13 23:04:00,56.3,52.1,29.93,WSW,254,10.4,16.1,86,0.00,FEW,,0.09,0.0,WeatherDisplay:10.37,2013-06-13 21:04:00,
2013-06-13 23:09:00,56.3,52.1,29.93,WSW,248,13.1,13.8,86,0.00,FEW,,0.09,0.0,WeatherDisplay:10.37,2013-06-13 21:09:00,
2013-06-13 23:14:00,56.3,52.1,29.93,WSW,244,10.0,15.0,86,0.00,FEW,,0.09,0.0,WeatherDisplay:10.37,2013-06-13 21:14:00,
2013-06-13 23:19:00,56.3,52.1,29.94,WSW,252,8.5,14.0,86,0.00,FEW,,0.09,0.0,WeatherDisplay:10.37,2013-06-13 21:19:00,
2013-06-13 23:24:00,56.4,51.9,29.94,West,259,8.8,17.3,85,0.00,FEW,,0.09,0.0,WeatherDisplay:10.37,2013-06-13 21:24:00,
2013-06-13 23:29:00,56.4,51.9,29.94,West,259,10.7,12.0,85,0.00,FEW,,0.09,0.0,WeatherDisplay:10.37,2013-06-13 21:29:00,
2013-06-13 23:34:00,56.4,51.9,29.94,WSW,242,9.5,11.5,85,0.00,OVC,,0.09,0.0,WeatherDisplay:10.37,2013-06-13 21:34:00,
2013-06-13 23:39:00,56.4,51.6,29.95,WSW,250,9.5,13.8,84,0.00,OVC,,0.09,0.0,WeatherDisplay:10.37,2013-06-13 21:39:00,
2013-06-13 23:44:00,56.5,51.7,29.95,WSW,241,8.4,11.5,84,0.00,OVC,,0.09,0.0,WeatherDisplay:10.37,2013-06-13 21:44:00,
2013-06-13 23:49:00,56.4,51.6,29.95,WSW,246,9.2,16.1,84,0.00,OVC,,0.09,0.0,WeatherDisplay:10.37,2013-06-13 21:49:00,
2013-06-13 23:54:00,56.4,51.6,29.95,WSW,255,5.2,9.2,84,0.00,OVC,,0.09,0.0,WeatherDisplay:10.37,2013-06-13 21:54:00,
2013-06-13 23:59:00,56.4,51.6,29.95,West,264,8.7,10.4,84,0.00,OVC,,0.09,0.0,WeatherDisplay:10.37,2013-06-13 21:59:00,